Time;durP1;ratioP1;P1;durP2;ratioP2;P2;SDS_P1;SDS_P2;PMS_P1;PMS_P2;Temp;Humidity;BMP_temperature;BMP_pressure;BME280_temperature;BME280_humidity;BME280_pressure;Samples;Min_cycle;Max_cycle;Signal;HPM_P1;HPM_P2
2022/04/03 00:00:42;;;;;;;6.53;5.93;;;2.50;89.20;;;;;;6218471;28;20197;-63
2022/04/03 00:03:43;;;;;;;6.00;5.37;;;2.50;89.40;;;;;;6266542;28;20193;-63
2022/04/03 00:06:43;;;;;;;6.03;5.33;;;2.40;89.30;;;;;;6238096;28;20193;-63
2022/04/03 00:09:44;;;;;;;5.83;4.97;;;2.50;87.10;;;;;;6231954;28;20201;-62
2022/04/03 00:12:46;;;;;;;7.23;5.63;;;2.50;87.00;;;;;;6234052;28;20201;-62
2022/04/03 00:15:47;;;;;;;5.90;5.30;;;2.50;88.60;;;;;;6248488;28;20194;-62
2022/04/03 00:18:49;;;;;;;8.07;5.63;;;2.50;88.90;;;;;;6265117;28;20284;-62
2022/04/03 00:21:50;;;;;;;6.77;5.27;;;2.50;88.70;;;;;;6253806;28;20228;-62
2022/04/03 00:24:52;;;;;;;7.23;5.40;;;2.50;88.40;;;;;;6209181;28;20204;-62
2022/04/03 00:27:53;;;;;;;7.33;5.07;;;2.60;87.80;;;;;;6257124;28;20280;-62
2022/04/03 00:30:55;;;;;;;6.60;5.10;;;2.50;86.70;;;;;;6278310;28;20200;-61
2022/04/03 00:33:56;;;;;;;8.37;5.63;;;2.60;87.00;;;;;;6256749;28;20193;-62
2022/04/03 00:36:57;;;;;;;7.23;4.63;;;2.50;86.80;;;;;;6256608;28;20212;-62
2022/04/03 00:39:58;;;;;;;6.00;4.57;;;2.50;86.50;;;;;;6256315;28;20225;-61
2022/04/03 00:42:59;;;;;;;5.00;4.47;;;2.50;86.70;;;;;;6272590;28;20595;-61
2022/04/03 00:46:01;;;;;;;6.17;4.60;;;2.50;86.20;;;;;;6239877;28;20182;-62
2022/04/03 00:49:02;;;;;;;5.93;4.70;;;2.40;86.60;;;;;;6256452;28;20332;-61
2022/04/03 00:52:04;;;;;;;6.33;5.50;;;2.50;87.50;;;;;;6256380;28;20243;-62
2022/04/03 00:55:05;;;;;;;6.60;5.40;;;2.40;87.10;;;;;;6251325;28;20200;-62
2022/04/03 00:58:06;;;;;;;7.40;5.90;;;2.40;88.00;;;;;;6256397;28;20221;-61
2022/04/03 01:01:07;;;;;;;8.23;5.83;;;2.40;88.70;;;;;;6255771;28;20193;-61
2022/04/03 01:04:08;;;;;;;6.70;5.30;;;2.30;86.80;;;;;;6220793;28;20228;-61
2022/04/03 01:07:09;;;;;;;6.33;5.70;;;2.40;87.80;;;;;;6289476;28;20264;-61
2022/04/03 01:10:10;;;;;;;8.93;5.40;;;2.40;88.10;;;;;;6256229;28;20198;-61
2022/04/03 01:13:11;;;;;;;6.40;5.33;;;2.40;88.50;;;;;;6239719;28;20190;-62
2022/04/03 01:16:12;;;;;;;7.47;5.63;;;2.40;87.60;;;;;;6256453;28;20207;-62
2022/04/03 01:19:12;;;;;;;5.13;4.57;;;2.40;87.50;;;;;;6239438;28;20222;-62
2022/04/03 01:22:13;;;;;;;6.23;5.60;;;2.40;87.90;;;;;;6222078;28;20189;-62
2022/04/03 01:25:14;;;;;;;6.50;5.13;;;2.30;86.50;;;;;;6255942;28;20187;-62
2022/04/03 01:28:15;;;;;;;6.07;5.30;;;2.30;88.10;;;;;;6270223;28;20324;-62
2022/04/03 01:31:16;;;;;;;7.57;5.17;;;2.30;86.50;;;;;;6306096;28;20192;-61
2022/04/03 01:34:19;;;;;;;7.47;5.07;;;2.30;86.70;;;;;;6305827;28;20189;-61
2022/04/03 01:37:19;;;;;;;7.87;5.37;;;2.30;87.40;;;;;;6289494;28;20189;-61
2022/04/03 01:40:20;;;;;;;6.43;4.93;;;2.30;88.90;;;;;;6273429;28;20249;-62
2022/04/03 01:43:21;;;;;;;5.97;5.33;;;2.30;88.60;;;;;;6277107;28;20190;-62
2022/04/03 01:46:22;;;;;;;6.43;4.93;;;2.30;89.10;;;;;;6261087;28;20199;-61
2022/04/03 01:49:23;;;;;;;8.07;4.97;;;2.30;89.00;;;;;;6293398;28;20189;-61
2022/04/03 01:52:23;;;;;;;5.27;4.53;;;2.30;88.10;;;;;;6309766;28;20201;-62
2022/04/03 01:55:25;;;;;;;5.90;5.30;;;2.40;88.40;;;;;;6276901;28;20232;-62
2022/04/03 01:58:27;;;;;;;6.10;5.50;;;2.30;88.80;;;;;;6293534;28;20251;-62
2022/04/03 02:01:30;;;;;;;5.40;4.90;;;2.40;88.90;;;;;;6293220;28;20186;-62
2022/04/03 02:04:32;;;;;;;7.07;5.00;;;2.40;88.60;;;;;;6308602;28;20204;-62
2022/04/03 02:07:33;;;;;;;6.23;5.53;;;2.40;89.20;;;;;;6251949;28;20187;-61
2022/04/03 02:10:34;;;;;;;7.17;6.23;;;2.30;89.00;;;;;;6284786;28;20200;-61
2022/04/03 02:13:35;;;;;;;5.53;5.03;;;2.40;88.50;;;;;;6285426;28;20273;-61
2022/04/03 02:16:36;;;;;;;7.07;5.00;;;2.40;88.50;;;;;;6276278;28;20200;-61
2022/04/03 02:19:37;;;;;;;6.50;4.50;;;2.40;88.30;;;;;;6275570;28;20214;-60
2022/04/03 02:22:38;;;;;;;6.67;5.00;;;2.40;87.50;;;;;;6281857;28;20192;-62
2022/04/03 02:25:38;;;;;;;7.37;5.80;;;2.40;87.60;;;;;;6276590;28;20189;-61
2022/04/03 02:28:40;;;;;;;6.00;5.40;;;2.30;87.70;;;;;;6280390;28;20238;-61
2022/04/03 02:31:42;;;;;;;5.90;5.30;;;2.30;86.90;;;;;;6296637;28;20246;-61
2022/04/03 02:34:43;;;;;;;6.00;4.90;;;2.40;87.70;;;;;;6292843;28;20170;-61
2022/04/03 02:37:44;;;;;;;5.83;4.50;;;2.40;87.60;;;;;;6291897;28;20194;-61
2022/04/03 02:40:45;;;;;;;6.13;5.00;;;2.40;87.50;;;;;;6276045;28;20185;-61
2022/04/03 02:43:46;;;;;;;6.37;4.70;;;2.30;87.00;;;;;;6275698;28;20186;-60
2022/04/03 02:46:47;;;;;;;6.20;4.27;;;2.30;87.90;;;;;;6275830;28;20197;-60
2022/04/03 02:49:52;;;;;;;7.50;4.20;;;2.20;85.70;;;;;;6276053;28;20185;-61
2022/04/03 02:52:54;;;;;;;5.77;5.13;;;2.20;85.60;;;;;;6291389;28;20205;-61
2022/04/03 02:55:55;;;;;;;7.10;4.80;;;2.10;84.20;;;;;;6263203;28;20196;-61
2022/04/03 02:58:56;;;;;;;5.00;4.50;;;2.20;84.90;;;;;;6302857;28;20217;-61
2022/04/03 03:01:57;;;;;;;4.67;3.83;;;2.30;85.40;;;;;;6274333;28;20291;-61
2022/04/03 03:04:58;;;;;;;4.77;4.27;;;2.20;85.00;;;;;;6267148;28;20186;-60
2022/04/03 03:07:59;;;;;;;4.73;4.10;;;2.20;86.00;;;;;;6245866;28;20194;-60
2022/04/03 03:11:00;;;;;;;6.43;4.47;;;2.30;85.70;;;;;;6278876;28;20226;-61
2022/04/03 03:14:02;;;;;;;5.23;4.03;;;2.30;85.90;;;;;;6275342;28;20182;-60
2022/04/03 03:17:03;;;;;;;5.43;4.30;;;2.30;85.90;;;;;;6275040;28;20193;-61
2022/04/03 03:20:08;;;;;;;4.13;3.67;;;2.30;86.60;;;;;;6291401;28;20217;-62
2022/04/03 03:23:09;;;;;;;4.00;3.70;;;2.30;86.70;;;;;;6291617;28;20205;-61
2022/04/03 03:26:10;;;;;;;5.37;3.87;;;2.30;86.20;;;;;;6274438;28;20186;-61
2022/04/03 03:29:10;;;;;;;5.03;4.07;;;2.30;85.30;;;;;;6283178;28;20245;-62
2022/04/03 03:32:11;;;;;;;5.10;4.50;;;2.40;86.00;;;;;;6307852;28;20193;-62
2022/04/03 03:35:12;;;;;;;5.00;4.03;;;2.30;86.10;;;;;;6307642;28;20193;-62
2022/04/03 03:38:13;;;;;;;6.97;4.10;;;2.30;85.20;;;;;;6290586;28;20220;-63
2022/04/03 03:41:14;;;;;;;7.17;3.70;;;2.30;86.30;;;;;;6307958;28;20260;-62
2022/04/03 03:44:15;;;;;;;5.00;4.00;;;2.30;86.60;;;;;;6285092;28;20253;-63
2022/04/03 03:47:16;;;;;;;6.33;4.03;;;2.30;86.60;;;;;;6274081;28;20196;-62
2022/04/03 03:50:17;;;;;;;5.13;3.87;;;2.30;85.60;;;;;;6273382;28;20295;-62
2022/04/03 03:53:19;;;;;;;5.33;3.90;;;2.30;85.00;;;;;;6273602;28;20193;-62
2022/04/03 03:56:20;;;;;;;4.70;3.90;;;2.30;85.80;;;;;;6274033;28;20193;-62
2022/04/03 03:59:21;;;;;;;4.97;3.73;;;2.30;86.00;;;;;;6290293;28;20224;-62
2022/04/03 04:02:22;;;;;;;5.27;3.80;;;2.30;86.10;;;;;;6273514;28;20272;-62
2022/04/03 04:05:23;;;;;;;5.03;3.70;;;2.30;85.20;;;;;;6273395;28;20182;-61
2022/04/03 04:08:23;;;;;;;4.20;3.53;;;2.40;85.20;;;;;;6268985;28;20216;-62
2022/04/03 04:11:24;;;;;;;6.90;4.00;;;2.30;85.50;;;;;;6249308;28;20233;-61
2022/04/03 04:14:25;;;;;;;4.80;3.67;;;2.30;86.30;;;;;;6248527;28;20189;-61
2022/04/03 04:17:26;;;;;;;4.20;3.80;;;2.30;85.40;;;;;;6249158;28;20184;-61
2022/04/03 04:20:27;;;;;;;5.33;3.40;;;2.30;85.40;;;;;;6288978;28;20218;-62
2022/04/03 04:23:27;;;;;;;8.40;4.57;;;2.30;85.00;;;;;;6272993;28;20185;-62
2022/04/03 04:26:28;;;;;;;4.20;3.90;;;2.30;85.30;;;;;;6276859;28;20209;-62
2022/04/03 04:29:29;;;;;;;4.70;3.50;;;2.30;85.70;;;;;;6284130;28;20312;-63
2022/04/03 04:32:30;;;;;;;5.13;4.13;;;2.30;85.50;;;;;;6290413;28;20177;-62
2022/04/03 04:35:31;;;;;;;4.80;4.30;;;2.30;86.30;;;;;;6307160;28;20193;-62
2022/04/03 04:38:31;;;;;;;4.20;3.30;;;2.30;84.80;;;;;;6291542;28;20213;-62
2022/04/03 04:41:32;;;;;;;5.50;3.83;;;2.30;84.40;;;;;;6306482;28;20196;-63
2022/04/03 04:44:33;;;;;;;5.63;3.87;;;2.30;84.10;;;;;;6272596;28;20192;-63
2022/04/03 04:47:35;;;;;;;7.27;4.50;;;2.30;84.20;;;;;;6272897;28;20189;-63
2022/04/03 04:50:35;;;;;;;8.87;4.23;;;2.30;84.20;;;;;;6273255;28;20323;-64
2022/04/03 04:53:36;;;;;;;5.60;4.43;;;2.20;84.90;;;;;;6250902;28;20206;-63
2022/04/03 04:56:37;;;;;;;6.03;4.27;;;2.30;85.70;;;;;;6272683;28;20190;-63
2022/04/03 04:59:38;;;;;;;4.70;4.30;;;2.30;85.50;;;;;;6306431;28;20263;-64
2022/04/03 05:02:39;;;;;;;5.07;4.60;;;2.30;86.30;;;;;;6276193;28;20184;-62
2022/04/03 05:05:40;;;;;;;4.97;4.13;;;2.30;86.60;;;;;;6288327;28;20239;-64
2022/04/03 05:08:42;;;;;;;5.43;4.10;;;2.30;86.90;;;;;;6267305;28;20221;-64
2022/04/03 05:11:42;;;;;;;7.07;4.50;;;2.30;86.30;;;;;;6289780;28;20197;-63
2022/04/03 05:14:43;;;;;;;5.63;4.33;;;2.30;85.90;;;;;;6278879;28;20198;-63
2022/04/03 05:17:45;;;;;;;4.80;4.30;;;2.30;86.70;;;;;;6291308;28;20188;-62
2022/04/03 05:20:46;;;;;;;3.73;3.43;;;2.30;86.30;;;;;;6306140;28;20196;-64
2022/04/03 05:23:47;;;;;;;5.63;3.73;;;2.30;85.60;;;;;;6310305;28;20176;-64
2022/04/03 05:26:48;;;;;;;4.53;3.33;;;2.40;85.60;;;;;;6291667;28;20201;-63
2022/04/03 05:29:48;;;;;;;5.10;3.40;;;2.40;85.20;;;;;;6293693;28;20256;-63
2022/04/03 05:32:49;;;;;;;3.87;3.30;;;2.40;85.70;;;;;;6260474;28;20193;-64
2022/04/03 05:35:50;;;;;;;6.37;4.20;;;2.40;85.10;;;;;;6260530;28;20189;-63
2022/04/03 05:38:51;;;;;;;4.57;4.13;;;2.30;84.40;;;;;;6267824;28;20312;-63
2022/04/03 05:41:54;;;;;;;5.53;3.70;;;2.40;84.90;;;;;;6247989;28;20194;-63
2022/04/03 05:44:55;;;;;;;5.27;4.17;;;2.40;85.20;;;;;;6226231;28;20261;-67
2022/04/03 05:47:56;;;;;;;5.17;4.30;;;2.30;85.00;;;;;;6275667;28;20196;-63
2022/04/03 05:50:56;;;;;;;5.53;4.60;;;2.40;85.80;;;;;;6224438;28;20196;-63
2022/04/03 05:53:57;;;;;;;5.60;4.47;;;2.50;86.00;;;;;;6273805;28;20228;-63
2022/04/03 05:56:58;;;;;;;5.60;4.63;;;2.50;85.70;;;;;;6266774;28;20197;-62
2022/04/03 05:59:59;;;;;;;5.53;4.80;;;2.40;84.50;;;;;;6266442;28;20217;-61
2022/04/03 06:03:01;;;;;;;6.90;4.40;;;2.40;85.30;;;;;;6225083;28;20222;-63
2022/04/03 06:06:02;;;;;;;160.87;72.73;;;2.50;85.70;;;;;;6267262;28;20198;-63
2022/04/03 06:09:04;;;;;;;32.27;15.40;;;2.60;85.10;;;;;;6202181;28;20194;-63
2022/04/03 06:12:05;;;;;;;16.17;9.43;;;2.60;85.20;;;;;;6240666;28;20431;-63
2022/04/03 06:15:06;;;;;;;23.37;11.20;;;2.60;86.10;;;;;;6237140;28;20279;-63
2022/04/03 06:18:09;;;;;;;33.53;17.23;;;2.50;87.50;;;;;;6232032;28;20220;-63
2022/04/03 06:21:10;;;;;;;21.83;11.17;;;2.70;86.40;;;;;;6271324;28;20243;-63
2022/04/03 06:24:10;;;;;;;10.93;6.80;;;2.80;87.10;;;;;;6242698;28;20652;-63
2022/04/03 06:27:11;;;;;;;5.80;5.00;;;2.90;86.00;;;;;;6225654;28;20194;-63
2022/04/03 06:30:12;;;;;;;6.90;5.77;;;3.10;85.30;;;;;;6228083;28;20216;-63
2022/04/03 06:33:13;;;;;;;7.53;4.93;;;3.10;85.20;;;;;;6273464;28;20508;-63
2022/04/03 06:36:14;;;;;;;6.40;4.10;;;3.20;85.40;;;;;;6258515;28;20205;-62
2022/04/03 06:39:15;;;;;;;7.20;5.50;;;3.40;85.30;;;;;;6249727;28;20226;-61
2022/04/03 06:42:16;;;;;;;7.67;5.50;;;3.40;84.80;;;;;;6284095;28;20195;-61
2022/04/03 06:45:17;;;;;;;7.23;5.13;;;3.50;84.30;;;;;;6281405;28;20196;-62
2022/04/03 06:48:19;;;;;;;6.40;5.37;;;3.60;83.60;;;;;;6277046;28;20248;-62
2022/04/03 06:51:20;;;;;;;5.70;5.10;;;3.80;84.60;;;;;;6233926;28;20189;-62
2022/04/03 06:54:21;;;;;;;6.33;5.13;;;3.80;82.90;;;;;;6226435;28;20228;-62
2022/04/03 06:57:22;;;;;;;6.50;4.77;;;3.80;79.50;;;;;;6258937;28;20190;-62
2022/04/03 07:00:23;;;;;;;7.97;4.63;;;3.90;77.10;;;;;;6274847;28;20312;-62
2022/04/03 07:03:24;;;;;;;4.27;3.80;;;3.90;78.40;;;;;;6225516;28;20239;-61
2022/04/03 07:06:24;;;;;;;6.47;3.27;;;4.00;77.00;;;;;;6244034;28;20188;-62
2022/04/03 07:09:25;;;;;;;4.53;3.27;;;4.10;74.20;;;;;;6205778;28;20200;-62
2022/04/03 07:12:26;;;;;;;4.77;3.43;;;4.20;76.20;;;;;;6239828;28;20200;-62
2022/04/03 07:15:27;;;;;;;4.07;3.53;;;4.10;68.00;;;;;;6274745;28;20184;-62
2022/04/03 07:18:31;;;;;;;3.13;2.73;;;4.20;74.20;;;;;;6274701;28;20221;-62
2022/04/03 07:21:32;;;;;;;3.03;2.67;;;4.30;70.40;;;;;;6242570;28;20202;-62
2022/04/03 07:24:33;;;;;;;3.33;3.03;;;4.20;65.20;;;;;;6246096;28;20203;-63
2022/04/03 07:27:34;;;;;;;5.07;2.87;;;4.30;64.20;;;;;;6260689;28;20221;-62
2022/04/03 07:30:34;;;;;;;3.90;2.90;;;4.40;63.40;;;;;;6273039;28;20199;-62
2022/04/03 07:33:35;;;;;;;3.77;2.50;;;4.40;66.20;;;;;;6225368;28;20201;-62
2022/04/03 07:36:36;;;;;;;3.13;2.60;;;4.50;64.30;;;;;;6266264;28;20216;-62
2022/04/03 07:39:37;;;;;;;3.10;2.80;;;4.60;67.50;;;;;;6232342;28;20217;-61
2022/04/03 07:42:39;;;;;;;3.73;3.17;;;4.70;65.40;;;;;;6235775;28;20189;-62
2022/04/03 07:45:40;;;;;;;3.07;2.70;;;4.80;63.00;;;;;;6273359;28;20190;-62
2022/04/03 07:48:41;;;;;;;4.30;2.67;;;4.90;61.70;;;;;;6271303;28;20202;-62
2022/04/03 07:51:42;;;;;;;3.17;2.63;;;4.90;58.70;;;;;;6260633;28;20264;-62
2022/04/03 07:54:43;;;;;;;3.03;2.47;;;5.00;60.80;;;;;;6280027;28;20185;-62
2022/04/03 07:57:45;;;;;;;2.67;2.47;;;5.00;59.50;;;;;;6241552;28;20206;-62
2022/04/03 08:00:46;;;;;;;5.80;2.93;;;5.00;61.80;;;;;;6279553;28;20269;-62
2022/04/03 08:03:47;;;;;;;3.93;2.50;;;5.10;58.80;;;;;;6272939;28;20190;-63
2022/04/03 08:06:48;;;;;;;2.93;2.17;;;5.20;61.60;;;;;;6243132;28;20195;-62
2022/04/03 08:09:49;;;;;;;2.43;2.17;;;5.10;57.20;;;;;;6266925;28;20193;-62
2022/04/03 08:12:50;;;;;;;2.10;1.90;;;5.20;59.40;;;;;;6279916;28;20666;-62
2022/04/03 08:15:51;;;;;;;3.37;2.50;;;5.30;61.10;;;;;;6266770;28;20196;-63
2022/04/03 08:18:52;;;;;;;3.07;2.50;;;5.30;61.00;;;;;;6251808;28;20220;-62
2022/04/03 08:21:52;;;;;;;3.10;2.80;;;5.40;63.00;;;;;;6257754;28;20197;-62
2022/04/03 08:24:54;;;;;;;2.10;1.87;;;5.50;62.50;;;;;;6253685;28;20209;-63
2022/04/03 08:27:56;;;;;;;1.80;1.70;;;5.50;60.50;;;;;;6280320;28;20232;-63
2022/04/03 08:30:57;;;;;;;2.30;2.10;;;5.50;59.20;;;;;;6290082;28;20185;-63
2022/04/03 08:33:57;;;;;;;4.87;2.00;;;5.50;56.10;;;;;;6256313;28;20265;-63
2022/04/03 08:36:58;;;;;;;2.27;2.07;;;5.50;60.10;;;;;;6249812;28;20185;-62
2022/04/03 08:39:59;;;;;;;2.13;1.93;;;5.60;59.10;;;;;;6256454;28;20538;-61
2022/04/03 08:43:01;;;;;;;1.97;1.77;;;5.50;55.60;;;;;;6255958;28;20214;-62
2022/04/03 08:46:07;;;;;;;4.40;2.10;;;5.60;61.40;;;;;;6258020;28;20198;-62
2022/04/03 08:49:08;;;;;;;1.90;1.70;;;5.80;61.80;;;;;;6285000;28;20197;-64
2022/04/03 08:52:12;;;;;;;2.50;1.80;;;5.80;54.90;;;;;;6276064;28;20189;-63
2022/04/03 08:55:14;;;;;;;2.13;1.87;;;5.90;57.50;;;;;;6286262;28;20213;-62
2022/04/03 08:58:17;;;;;;;1.77;1.67;;;6.10;61.80;;;;;;6261659;28;20223;-62
2022/04/03 09:01:18;;;;;;;2.40;1.47;;;6.10;59.20;;;;;;6259615;28;20197;-62
2022/04/03 09:04:21;;;;;;;3.23;1.90;;;6.20;59.40;;;;;;6235958;28;20212;-61
2022/04/03 09:07:21;;;;;;;1.87;1.70;;;6.30;58.20;;;;;;6260738;28;20194;-62
2022/04/03 09:10:22;;;;;;;2.70;1.47;;;6.40;57.00;;;;;;6253775;28;20224;-65
2022/04/03 09:13:24;;;;;;;1.97;1.60;;;6.60;55.00;;;;;;6236531;28;20186;-62
2022/04/03 09:16:39;;;;;;;2.10;1.60;;;6.60;53.90;;;;;;6236450;28;20187;-64
2022/04/03 09:19:39;;;;;;;1.97;1.73;;;6.70;55.80;;;;;;6220162;28;20221;-64
2022/04/03 09:22:43;;;;;;;2.40;2.20;;;6.90;53.30;;;;;;6204226;28;20210;-63
2022/04/03 09:25:44;;;;;;;2.97;2.17;;;6.90;54.20;;;;;;6260787;28;20196;-63
2022/04/03 09:28:45;;;;;;;1.80;1.70;;;7.20;53.60;;;;;;6269851;28;20237;-63
2022/04/03 09:31:46;;;;;;;3.07;1.60;;;7.30;52.40;;;;;;6293366;28;20225;-64
2022/04/03 09:34:47;;;;;;;1.97;1.80;;;7.40;50.10;;;;;;6293441;28;20192;-63
2022/04/03 09:38:15;;;;;;;1.97;1.70;;;7.50;50.50;;;;;;6294103;28;20189;-63
2022/04/03 09:41:16;;;;;;;1.83;1.70;;;7.30;47.30;;;;;;6269025;28;20243;-63
2022/04/03 09:44:17;;;;;;;2.20;1.80;;;7.30;53.20;;;;;;6268613;28;20205;-63
2022/04/03 09:47:26;;;;;;;2.67;1.90;;;7.50;54.30;;;;;;6255314;28;20199;-62
2022/04/03 09:50:27;;;;;;;2.07;1.90;;;7.70;50.50;;;;;;6268681;28;20183;-63
2022/04/03 09:53:29;;;;;;;2.23;1.87;;;7.80;45.50;;;;;;6252160;28;20194;-63
2022/04/03 09:56:33;;;;;;;2.17;1.97;;;7.80;45.30;;;;;;6268903;28;20205;-62
2022/04/03 09:59:35;;;;;;;2.40;2.20;;;7.80;44.60;;;;;;6268172;28;20233;-62
2022/04/03 10:02:35;;;;;;;2.93;2.20;;;7.80;46.50;;;;;;6283692;28;20193;-63
2022/04/03 10:05:37;;;;;;;2.37;2.07;;;7.80;43.60;;;;;;6276066;28;20194;-63
2022/04/03 10:08:38;;;;;;;2.40;2.20;;;7.30;43.10;;;;;;6276011;28;20186;-63
2022/04/03 10:11:40;;;;;;;2.00;1.90;;;7.50;44.30;;;;;;6273802;28;20223;-63
2022/04/03 10:14:46;;;;;;;2.20;1.80;;;7.50;44.60;;;;;;6275988;28;20201;-63
2022/04/03 10:17:47;;;;;;;3.53;2.10;;;7.70;48.50;;;;;;6293184;28;20187;-63
2022/04/03 10:20:49;;;;;;;4.63;2.43;;;8.10;47.00;;;;;;6275854;28;20227;-64
2022/04/03 10:23:55;;;;;;;3.23;2.23;;;8.20;47.10;;;;;;6290347;28;20368;-63
2022/04/03 10:27:12;;;;;;;2.80;2.50;;;8.30;44.20;;;;;;6292484;28;20195;-63
2022/04/03 10:30:17;;;;;;;2.40;2.20;;;8.10;42.50;;;;;;6305827;28;20205;-63
2022/04/03 10:33:19;;;;;;;2.50;2.20;;;8.10;42.30;;;;;;6267296;28;20240;-62
2022/04/03 10:36:26;;;;;;;2.90;2.30;;;8.10;43.00;;;;;;6305719;28;20180;-62
2022/04/03 10:39:29;;;;;;;3.47;3.07;;;8.30;44.50;;;;;;6311420;28;20267;-62
2022/04/03 10:42:30;;;;;;;13.33;10.43;;;8.30;43.70;;;;;;6300585;28;20189;-62
2022/04/03 10:45:32;;;;;;;2.70;2.50;;;8.20;42.60;;;;;;6294998;28;20191;-62
2022/04/03 10:48:33;;;;;;;3.07;2.63;;;7.80;40.70;;;;;;6305726;28;20193;-64
2022/04/03 10:51:35;;;;;;;2.37;2.17;;;7.80;41.50;;;;;;6262228;28;20199;-63
2022/04/03 10:54:49;;;;;;;2.70;2.47;;;7.80;40.40;;;;;;6297031;28;20294;-62
2022/04/03 10:58:06;;;;;;;3.00;2.70;;;7.70;41.70;;;;;;6258380;28;20174;-62
2022/04/03 11:01:20;;;;;;;3.90;2.80;;;7.90;41.90;;;;;;6277987;28;20263;-62
2022/04/03 11:04:22;;;;;;;2.73;2.43;;;7.90;41.20;;;;;;6299924;28;20186;-62
2022/04/03 11:07:23;;;;;;;2.60;2.40;;;8.10;39.30;;;;;;6288461;28;20192;-62
2022/04/03 11:10:59;;;;;;;2.67;2.13;;;8.20;40.60;;;;;;6278433;28;20235;-62
2022/04/03 11:14:00;;;;;;;2.63;2.40;;;8.40;39.20;;;;;;6298679;28;20221;-63
2022/04/03 11:17:01;;;;;;;2.50;2.30;;;8.30;37.60;;;;;;6266589;28;20235;-61
2022/04/03 11:20:02;;;;;;;2.40;2.20;;;8.30;38.30;;;;;;6265826;28;20224;-62
2022/04/03 11:23:04;;;;;;;2.93;2.63;;;8.30;40.30;;;;;;6299285;28;20284;-62
2022/04/03 11:26:05;;;;;;;2.87;2.60;;;8.50;37.80;;;;;;6299414;28;20174;-62
2022/04/03 11:29:07;;;;;;;3.00;2.70;;;8.70;42.70;;;;;;6291072;28;20245;-63
2022/04/03 11:32:09;;;;;;;2.77;2.30;;;8.90;40.80;;;;;;6308195;28;20182;-63
2022/04/03 11:35:09;;;;;;;3.83;2.43;;;9.00;40.50;;;;;;6274422;28;20292;-63
2022/04/03 11:38:10;;;;;;;2.37;2.17;;;8.80;38.40;;;;;;6287612;28;20239;-63
2022/04/03 11:41:22;;;;;;;2.90;2.40;;;8.60;37.90;;;;;;6266029;28;20180;-62
2022/04/03 11:44:24;;;;;;;3.10;2.40;;;8.30;39.00;;;;;;6271198;28;20178;-62
2022/04/03 11:47:25;;;;;;;4.33;2.30;;;8.30;40.00;;;;;;6292664;28;20193;-61
2022/04/03 11:50:26;;;;;;;3.00;2.63;;;8.60;38.40;;;;;;6302848;28;20189;-62
2022/04/03 11:53:26;;;;;;;2.87;2.13;;;8.90;37.00;;;;;;6290402;28;20196;-62
2022/04/03 11:56:31;;;;;;;2.47;2.27;;;8.90;36.00;;;;;;6268609;28;20195;-63
2022/04/03 11:59:35;;;;;;;2.70;2.37;;;9.10;40.90;;;;;;6273872;28;20320;-63
2022/04/03 12:02:36;;;;;;;3.00;2.30;;;9.70;42.00;;;;;;6290777;28;20186;-62
2022/04/03 12:05:40;;;;;;;2.40;2.20;;;10.30;38.20;;;;;;6265731;28;20241;-62
2022/04/03 12:08:45;;;;;;;2.77;2.57;;;10.60;36.50;;;;;;6281793;28;20248;-62
2022/04/03 12:11:50;;;;;;;3.23;2.50;;;10.30;34.90;;;;;;6275426;28;20185;-61
2022/04/03 12:14:51;;;;;;;3.37;2.53;;;10.60;36.10;;;;;;6306550;28;20186;-63
2022/04/03 12:17:56;;;;;;;2.93;2.73;;;11.10;35.00;;;;;;6290224;28;20235;-61
2022/04/03 12:20:57;;;;;;;2.73;2.53;;;12.10;32.40;;;;;;6289724;28;20228;-60
2022/04/03 12:24:24;;;;;;;2.47;2.17;;;12.40;31.90;;;;;;6286488;28;20185;-61
2022/04/03 12:27:32;;;;;;;2.07;1.87;;;13.40;32.30;;;;;;6307621;28;20185;-61
2022/04/03 12:30:32;;;;;;;2.20;2.00;;;13.10;30.60;;;;;;6290419;28;20197;-60
2022/04/03 12:33:36;;;;;;;2.60;2.37;;;13.10;33.80;;;;;;6273440;28;20188;-60
2022/04/03 12:36:47;;;;;;;2.83;2.63;;;12.50;29.90;;;;;;6272895;28;20202;-60
2022/04/03 12:39:51;;;;;;;2.30;2.10;;;12.60;33.00;;;;;;6299239;28;20205;-60
2022/04/03 12:43:01;;;;;;;2.63;2.43;;;12.50;32.60;;;;;;6272543;28;20231;-60
2022/04/03 12:46:02;;;;;;;4.10;3.30;;;12.30;30.20;;;;;;6253818;28;20397;-60
2022/04/03 12:49:03;;;;;;;2.83;2.13;;;11.60;32.70;;;;;;6199851;28;20182;-61
2022/04/03 12:52:04;;;;;;;3.87;2.60;;;11.10;33.00;;;;;;6236610;28;20193;-61
2022/04/03 12:55:35;;;;;;;5.30;2.53;;;11.00;32.50;;;;;;6262617;28;20185;-60
2022/04/03 12:58:41;;;;;;;1.93;1.83;;;11.00;35.50;;;;;;6285644;28;20240;-61
2022/04/03 13:01:42;;;;;;;3.53;2.30;;;10.90;33.50;;;;;;6263268;28;20208;-61
2022/04/03 13:04:44;;;;;;;4.03;2.13;;;10.90;36.30;;;;;;6245476;28;20191;-61
2022/04/03 13:07:45;;;;;;;3.43;2.80;;;10.80;36.60;;;;;;6250889;28;20273;-61
2022/04/03 13:10:57;;;;;;;2.20;2.00;;;10.60;36.00;;;;;;6256548;28;20182;-60
2022/04/03 13:14:17;;;;;;;2.63;2.43;;;10.70;35.40;;;;;;6269757;28;20189;-59
2022/04/03 13:17:18;;;;;;;1.97;1.87;;;10.40;35.00;;;;;;6255368;28;20280;-59
2022/04/03 13:20:19;;;;;;;1.93;1.83;;;10.30;33.50;;;;;;6250295;28;20228;-61
2022/04/03 13:23:22;;;;;;;2.60;2.40;;;10.00;33.90;;;;;;6274259;28;20209;-59
2022/04/03 13:26:23;;;;;;;2.77;2.57;;;9.50;35.30;;;;;;6258360;28;20229;-61
2022/04/03 13:29:25;;;;;;;2.57;2.17;;;9.40;37.30;;;;;;6247674;28;20237;-61
2022/04/03 13:32:26;;;;;;;2.10;1.90;;;9.30;36.50;;;;;;6256075;28;20202;-59
2022/04/03 13:35:27;;;;;;;2.87;2.10;;;9.50;37.20;;;;;;6241636;28;20197;-60
2022/04/03 13:38:29;;;;;;;2.33;2.13;;;9.70;38.00;;;;;;6273715;28;20214;-59
2022/04/03 13:41:30;;;;;;;3.73;2.57;;;9.70;39.50;;;;;;6276534;28;20239;-60
2022/04/03 13:44:31;;;;;;;3.17;1.90;;;10.80;37.50;;;;;;6268265;28;20238;-60
2022/04/03 13:47:32;;;;;;;2.47;2.00;;;11.90;36.10;;;;;;6261808;28;20221;-60
2022/04/03 13:50:33;;;;;;;2.40;2.20;;;12.30;32.70;;;;;;6263050;28;20204;-60
2022/04/03 13:53:34;;;;;;;2.33;1.93;;;11.70;35.90;;;;;;6259639;28;20198;-60
2022/04/03 13:56:37;;;;;;;2.13;1.93;;;11.30;36.20;;;;;;6259939;28;20206;-61
2022/04/03 13:59:38;;;;;;;2.07;1.87;;;11.10;36.80;;;;;;6259676;28;20221;-60
2022/04/03 14:02:38;;;;;;;1.80;1.70;;;10.90;36.40;;;;;;6257161;28;20182;-60
2022/04/03 14:05:39;;;;;;;2.57;1.60;;;12.20;38.10;;;;;;6213119;28;20209;-60
2022/04/03 14:08:41;;;;;;;1.53;1.43;;;14.40;30.40;;;;;;6251687;28;20187;-59
2022/04/03 14:11:42;;;;;;;1.57;1.47;;;14.50;28.60;;;;;;6235383;28;20187;-60
2022/04/03 14:14:43;;;;;;;1.57;1.47;;;13.80;30.60;;;;;;6266524;28;20197;-59
2022/04/03 14:17:43;;;;;;;1.83;1.60;;;13.10;31.30;;;;;;6259619;28;20186;-59
2022/04/03 14:20:44;;;;;;;1.73;1.63;;;12.30;35.60;;;;;;6259869;28;20271;-60
2022/04/03 14:23:45;;;;;;;1.77;1.67;;;11.90;35.00;;;;;;6259185;28;20194;-60
2022/04/03 14:26:46;;;;;;;1.47;1.33;;;11.80;34.50;;;;;;6256115;28;20238;-59
2022/04/03 14:29:46;;;;;;;1.70;1.60;;;11.80;33.40;;;;;;6297657;28;20236;-59
2022/04/03 14:32:48;;;;;;;1.50;1.40;;;12.10;34.40;;;;;;6304336;28;20195;-59
2022/04/03 14:35:49;;;;;;;1.60;1.47;;;11.90;32.10;;;;;;6309334;28;20230;-61
2022/04/03 14:38:51;;;;;;;2.83;1.73;;;12.00;31.00;;;;;;6292929;28;20214;-63
2022/04/03 14:41:53;;;;;;;1.60;1.50;;;11.90;32.80;;;;;;6281930;28;20185;-61
2022/04/03 14:44:54;;;;;;;2.20;1.80;;;11.70;32.00;;;;;;6316847;28;20198;-62
2022/04/03 14:47:55;;;;;;;3.13;1.60;;;11.40;34.00;;;;;;6267971;28;20193;-61
2022/04/03 14:50:56;;;;;;;2.80;1.53;;;11.20;35.70;;;;;;6291699;28;20199;-61
2022/04/03 14:53:57;;;;;;;2.40;2.00;;;10.90;35.00;;;;;;6306397;28;20189;-61
2022/04/03 14:56:58;;;;;;;1.83;1.73;;;10.80;35.10;;;;;;6279561;28;20181;-61
2022/04/03 15:00:04;;;;;;;2.20;2.00;;;10.50;34.80;;;;;;6274884;28;20274;-62
2022/04/03 15:03:05;;;;;;;1.97;1.70;;;10.10;35.80;;;;;;6295792;28;20190;-61
2022/04/03 15:06:07;;;;;;;1.73;1.63;;;9.80;35.80;;;;;;6291789;28;20185;-62
2022/04/03 15:09:08;;;;;;;1.63;1.23;;;9.90;36.70;;;;;;6276145;28;20194;-60
2022/04/03 15:12:12;;;;;;;1.67;1.57;;;10.70;35.30;;;;;;6287846;28;20190;-59
2022/04/03 15:15:13;;;;;;;1.70;1.53;;;10.50;34.30;;;;;;6258183;28;20207;-60
2022/04/03 15:18:14;;;;;;;1.57;1.40;;;10.60;34.00;;;;;;6274352;28;20189;-61
2022/04/03 15:21:15;;;;;;;1.77;1.60;;;10.40;34.90;;;;;;6241519;28;20217;-61
2022/04/03 15:24:16;;;;;;;1.70;1.60;;;10.20;34.70;;;;;;6265373;28;20189;-62
2022/04/03 15:27:17;;;;;;;1.90;1.67;;;9.90;34.20;;;;;;6296331;28;20246;-61
2022/04/03 15:30:18;;;;;;;1.57;1.47;;;9.90;37.90;;;;;;6241491;28;20182;-61
2022/04/03 15:33:19;;;;;;;1.70;1.60;;;10.00;36.00;;;;;;6241637;28;20197;-60
2022/04/03 15:36:20;;;;;;;1.63;1.53;;;10.20;38.80;;;;;;6220820;28;20254;-61
2022/04/03 15:39:21;;;;;;;1.97;1.70;;;10.50;37.80;;;;;;6233202;28;20225;-61
2022/04/03 15:42:22;;;;;;;2.00;1.80;;;10.70;35.30;;;;;;6235952;28;20221;-61
2022/04/03 15:45:23;;;;;;;1.43;1.33;;;10.90;36.00;;;;;;6274676;28;20185;-59
2022/04/03 15:48:24;;;;;;;3.47;1.70;;;11.10;34.90;;;;;;6260244;28;20192;-62
2022/04/03 15:51:25;;;;;;;1.63;1.53;;;10.80;37.30;;;;;;6216752;28;20174;-60
2022/04/03 15:54:25;;;;;;;1.50;1.40;;;10.80;37.20;;;;;;6249650;28;20245;-61
2022/04/03 15:57:26;;;;;;;1.80;1.70;;;10.80;34.50;;;;;;6216397;28;20214;-61